Time;durP1;ratioP1;P1;durP2;ratioP2;P2;SDS_P1;SDS_P2;PMS_P1;PMS_P2;Temp;Humidity;BMP_temperature;BMP_pressure;BME280_temperature;BME280_humidity;BME280_pressure;Samples;Min_cycle;Max_cycle;Signal;HPM_P1;HPM_P2
2021/05/22 00:02:23;;;;;;;1.50;0.80;;;22.10;46.10;;;;;;5061119;28;20447;-60
2021/05/22 00:04:49;;;;;;;0.98;0.52;;;22.10;46.10;;;;;;5068115;28;20116;-59
2021/05/22 00:07:14;;;;;;;1.42;0.70;;;22.10;46.00;;;;;;5068695;28;20082;-60
2021/05/22 00:09:40;;;;;;;2.42;0.75;;;22.10;46.00;;;;;;5068915;28;20449;-59
2021/05/22 00:12:06;;;;;;;1.48;0.70;;;22.10;46.00;;;;;;5067408;28;20016;-60
2021/05/22 00:14:32;;;;;;;1.35;0.70;;;22.10;45.90;;;;;;5066318;28;20050;-58
2021/05/22 00:16:57;;;;;;;0.75;0.60;;;22.00;45.80;;;;;;5061786;28;20045;-59
2021/05/22 00:19:23;;;;;;;1.10;0.60;;;22.10;46.40;;;;;;5047508;28;20025;-57
2021/05/22 00:21:49;;;;;;;1.38;0.60;;;22.00;45.80;;;;;;5061265;28;20403;-61
2021/05/22 00:24:14;;;;;;;0.50;0.50;;;22.00;45.80;;;;;;5047635;28;20524;-61
2021/05/22 00:26:40;;;;;;;1.10;0.70;;;22.00;45.80;;;;;;5047517;28;20075;-60
2021/05/22 00:29:06;;;;;;;1.15;0.80;;;22.00;45.70;;;;;;5057535;28;20021;-61
2021/05/22 00:31:33;;;;;;;1.05;0.60;;;22.00;45.70;;;;;;5065537;28;20060;-57
2021/05/22 00:33:59;;;;;;;0.77;0.60;;;22.00;45.60;;;;;;5065035;28;20052;-59
2021/05/22 00:36:25;;;;;;;1.30;0.73;;;22.00;45.60;;;;;;5066794;28;20040;-57
2021/05/22 00:38:50;;;;;;;0.73;0.60;;;22.00;45.60;;;;;;5066427;28;20451;-59
2021/05/22 00:41:16;;;;;;;0.77;0.60;;;22.00;45.60;;;;;;5066185;28;20124;-59
2021/05/22 00:43:41;;;;;;;0.75;0.60;;;22.00;45.60;;;;;;5064285;28;20109;-58
2021/05/22 00:46:07;;;;;;;1.60;0.93;;;22.00;45.60;;;;;;5064813;28;20460;-59
2021/05/22 00:48:33;;;;;;;1.20;0.70;;;22.00;45.50;;;;;;5061160;28;20097;-58
2021/05/22 00:50:58;;;;;;;0.98;0.70;;;22.00;45.60;;;;;;5066830;28;20036;-59
2021/05/22 00:53:24;;;;;;;1.23;0.65;;;22.00;45.50;;;;;;5065133;28;20107;-61
2021/05/22 00:55:49;;;;;;;1.92;0.68;;;22.00;45.50;;;;;;5067626;28;20131;-56
2021/05/22 00:58:15;;;;;;;1.15;0.60;;;21.90;45.50;;;;;;5080497;28;20059;-59
2021/05/22 01:00:51;;;;;;;0.90;0.60;;;21.90;45.50;;;;;;5063457;28;20450;-57
2021/05/22 01:03:28;;;;;;;1.40;0.60;;;22.00;45.50;;;;;;5064807;28;20459;-54
2021/05/22 01:06:10;;;;;;;1.02;0.60;;;21.90;45.50;;;;;;5067751;28;20468;-60
2021/05/22 01:08:37;;;;;;;1.33;0.50;;;21.90;45.40;;;;;;5066929;28;20021;-61
2021/05/22 01:11:11;;;;;;;1.10;0.65;;;21.90;45.50;;;;;;5067072;28;20021;-60
2021/05/22 01:13:38;;;;;;;1.83;0.63;;;21.90;45.50;;;;;;5066525;28;20029;-57
2021/05/22 01:16:05;;;;;;;1.02;0.60;;;21.90;45.50;;;;;;5067584;28;20024;-60
2021/05/22 01:18:32;;;;;;;0.73;0.55;;;21.90;45.40;;;;;;5065857;28;20375;-58
2021/05/22 01:21:01;;;;;;;0.60;0.50;;;21.90;45.40;;;;;;5065973;28;20033;-59
2021/05/22 01:23:40;;;;;;;0.85;0.60;;;21.90;45.40;;;;;;5065599;28;20036;-59
2021/05/22 01:26:06;;;;;;;0.57;0.50;;;21.90;45.50;;;;;;5066035;28;20028;-59
2021/05/22 01:28:34;;;;;;;1.80;0.82;;;21.90;45.50;;;;;;5066801;28;20055;-56
2021/05/22 01:31:00;;;;;;;0.82;0.50;;;21.90;45.50;;;;;;5066609;28;20479;-55
2021/05/22 01:33:25;;;;;;;0.90;0.68;;;21.90;45.50;;;;;;5065661;28;20031;-59
2021/05/22 01:35:51;;;;;;;0.80;0.60;;;21.90;45.50;;;;;;5063869;28;20032;-60
2021/05/22 01:38:17;;;;;;;1.00;0.60;;;21.90;45.50;;;;;;5064591;28;20047;-57
2021/05/22 01:40:43;;;;;;;1.00;0.57;;;21.90;45.50;;;;;;5066594;28;20028;-57
2021/05/22 01:43:09;;;;;;;1.25;0.70;;;21.80;45.40;;;;;;5066213;28;20349;-59
2021/05/22 01:45:40;;;;;;;0.40;0.40;;;21.80;45.40;;;;;;5067044;28;20148;-58
2021/05/22 01:48:08;;;;;;;1.23;0.60;;;21.80;45.40;;;;;;5066080;28;20036;-59
2021/05/22 01:50:35;;;;;;;0.95;0.68;;;21.80;45.40;;;;;;5066846;28;20064;-60
2021/05/22 01:53:04;;;;;;;0.52;0.40;;;21.80;45.40;;;;;;5066955;28;20021;-60
2021/05/22 01:55:31;;;;;;;0.60;0.55;;;21.80;45.40;;;;;;5065603;28;20154;-57
2021/05/22 01:57:57;;;;;;;1.85;0.80;;;21.80;45.40;;;;;;5064950;28;20215;-57
2021/05/22 02:00:23;;;;;;;1.52;0.60;;;21.80;45.40;;;;;;5057619;28;20021;-59
2021/05/22 02:02:58;;;;;;;0.70;0.50;;;21.80;45.40;;;;;;5065361;28;20027;-56
2021/05/22 02:05:24;;;;;;;1.08;0.52;;;21.80;45.40;;;;;;5066655;28;20032;-59
2021/05/22 02:07:52;;;;;;;1.17;0.55;;;21.80;45.40;;;;;;5064877;28;20036;-57
2021/05/22 02:10:18;;;;;;;1.05;0.65;;;21.80;45.30;;;;;;5066939;28;20085;-59
2021/05/22 02:12:45;;;;;;;0.73;0.57;;;21.80;45.30;;;;;;5064371;28;20115;-59
2021/05/22 02:15:13;;;;;;;0.98;0.60;;;21.70;45.20;;;;;;5067058;28;20100;-56
2021/05/22 02:17:40;;;;;;;1.10;0.60;;;21.80;45.80;;;;;;5066272;28;20739;-56
2021/05/22 02:20:09;;;;;;;1.10;0.60;;;21.70;45.20;;;;;;5066052;28;20282;-57
2021/05/22 02:22:39;;;;;;;1.43;0.70;;;21.80;45.30;;;;;;5064565;28;20032;-60
2021/05/22 02:25:05;;;;;;;1.08;0.60;;;21.80;45.30;;;;;;5066794;28;20033;-59
2021/05/22 02:27:33;;;;;;;1.17;0.60;;;21.70;45.20;;;;;;5065751;28;20100;-58
2021/05/22 02:29:59;;;;;;;0.70;0.50;;;21.70;45.20;;;;;;5055623;28;20048;-55
2021/05/22 02:32:26;;;;;;;0.77;0.50;;;21.80;45.30;;;;;;5056374;28;20491;-59
2021/05/22 02:34:54;;;;;;;0.73;0.50;;;21.70;45.20;;;;;;5046083;28;20029;-56
2021/05/22 02:37:26;;;;;;;0.50;0.40;;;21.70;45.20;;;;;;5055108;28;20033;-59
2021/05/22 02:39:55;;;;;;;0.98;0.50;;;21.70;45.20;;;;;;5066345;28;20130;-56
2021/05/22 02:42:22;;;;;;;0.80;0.55;;;21.70;45.10;;;;;;5066262;28;20025;-59
2021/05/22 02:44:51;;;;;;;0.95;0.50;;;21.70;45.20;;;;;;5066119;28;20378;-59
2021/05/22 02:47:19;;;;;;;0.57;0.50;;;21.70;45.10;;;;;;5066347;28;20027;-56
2021/05/22 02:49:48;;;;;;;1.52;0.50;;;21.70;45.00;;;;;;5058517;28;20087;-58
2021/05/22 02:52:17;;;;;;;0.52;0.40;;;21.70;45.10;;;;;;5051127;28;20021;-62
2021/05/22 02:54:44;;;;;;;0.68;0.50;;;21.70;45.10;;;;;;5068348;28;20090;-59
2021/05/22 02:57:12;;;;;;;0.80;0.47;;;21.70;45.10;;;;;;5054164;28;20024;-56
2021/05/22 02:59:39;;;;;;;1.02;0.50;;;21.60;45.00;;;;;;5053455;28;20044;-59
2021/05/22 03:02:06;;;;;;;0.73;0.50;;;21.70;45.00;;;;;;5063941;28;20036;-61
2021/05/22 03:04:34;;;;;;;0.40;0.40;;;21.70;45.00;;;;;;5067009;28;20025;-58
2021/05/22 03:07:01;;;;;;;0.65;0.57;;;21.70;45.00;;;;;;5070085;28;20050;-58
2021/05/22 03:09:27;;;;;;;0.80;0.50;;;21.60;45.00;;;;;;5067776;28;20421;-57
2021/05/22 03:11:52;;;;;;;1.27;0.50;;;21.60;45.00;;;;;;5069538;28;20140;-57
2021/05/22 03:14:18;;;;;;;0.82;0.57;;;21.60;45.00;;;;;;5068340;28;20086;-59
2021/05/22 03:16:43;;;;;;;0.70;0.50;;;21.60;45.00;;;;;;5065222;28;20102;-55
2021/05/22 03:19:09;;;;;;;0.68;0.40;;;21.60;44.90;;;;;;5056689;28;20024;-61
2021/05/22 03:21:35;;;;;;;0.65;0.50;;;21.60;44.90;;;;;;5070129;28;20036;-56
2021/05/22 03:24:01;;;;;;;0.63;0.50;;;21.60;44.90;;;;;;5068737;28;20469;-56
2021/05/22 03:26:28;;;;;;;0.95;0.50;;;21.60;44.90;;;;;;5069664;28;20143;-54
2021/05/22 03:28:53;;;;;;;0.40;0.38;;;21.60;44.90;;;;;;5066090;28;20024;-60
2021/05/22 03:31:19;;;;;;;0.73;0.52;;;21.60;44.90;;;;;;5053919;28;20031;-59
2021/05/22 03:33:45;;;;;;;1.10;0.50;;;21.60;44.90;;;;;;5063050;28;20062;-57
2021/05/22 03:36:10;;;;;;;0.60;0.50;;;21.60;44.90;;;;;;5069844;28;20020;-56
2021/05/22 03:38:36;;;;;;;1.25;0.60;;;21.60;44.90;;;;;;5062652;28;20032;-58
2021/05/22 03:41:02;;;;;;;0.63;0.50;;;21.60;44.90;;;;;;5066521;28;20051;-57
2021/05/22 03:43:27;;;;;;;0.70;0.50;;;21.60;44.90;;;;;;5061294;28;20114;-61
2021/05/22 03:45:53;;;;;;;0.60;0.50;;;21.60;44.90;;;;;;5069354;28;20020;-59
2021/05/22 03:48:19;;;;;;;0.82;0.50;;;21.60;44.90;;;;;;5066803;28;20028;-60
2021/05/22 03:50:44;;;;;;;0.73;0.50;;;21.60;44.90;;;;;;5067854;28;20020;-58
2021/05/22 03:53:10;;;;;;;0.63;0.40;;;21.50;44.80;;;;;;5051297;28;20539;-59
2021/05/22 03:55:36;;;;;;;1.23;0.75;;;21.60;44.80;;;;;;5068986;28;20103;-56
2021/05/22 03:58:02;;;;;;;0.50;0.50;;;21.50;44.80;;;;;;5066132;28;20123;-60
2021/05/22 04:00:27;;;;;;;0.73;0.60;;;21.50;44.80;;;;;;5061014;28;20037;-61
2021/05/22 04:02:53;;;;;;;0.93;0.40;;;21.50;44.80;;;;;;5046779;28;20742;-60
2021/05/22 04:05:19;;;;;;;0.63;0.40;;;21.50;44.80;;;;;;5058071;28;20023;-59
2021/05/22 04:07:45;;;;;;;0.80;0.60;;;21.50;44.80;;;;;;5068668;28;20427;-56
2021/05/22 04:10:11;;;;;;;0.50;0.40;;;21.50;44.80;;;;;;5068120;28;20028;-56
2021/05/22 04:12:37;;;;;;;0.45;0.35;;;21.50;44.80;;;;;;5067403;28;20067;-56
2021/05/22 04:15:04;;;;;;;0.70;0.60;;;21.50;44.80;;;;;;5068273;28;20418;-57
2021/05/22 04:17:29;;;;;;;0.40;0.40;;;21.50;44.80;;;;;;5067346;28;20037;-58
2021/05/22 04:19:55;;;;;;;0.55;0.47;;;21.50;44.80;;;;;;5067369;28;20032;-56
2021/05/22 04:22:21;;;;;;;0.80;0.50;;;21.50;44.80;;;;;;5067127;28;20375;-58
2021/05/22 04:24:46;;;;;;;0.50;0.40;;;21.50;44.80;;;;;;5066180;28;20455;-56
2021/05/22 04:27:12;;;;;;;0.45;0.40;;;21.50;44.80;;;;;;5067909;28;20522;-60
2021/05/22 04:29:38;;;;;;;0.65;0.50;;;21.50;44.80;;;;;;5063116;28;20051;-59
2021/05/22 04:32:04;;;;;;;0.60;0.47;;;21.50;44.80;;;;;;5066781;28;20506;-59
2021/05/22 04:34:30;;;;;;;0.60;0.38;;;21.50;44.90;;;;;;5065166;28;20037;-58
2021/05/22 04:36:56;;;;;;;0.40;0.40;;;21.50;44.80;;;;;;5057067;28;20093;-59
2021/05/22 04:39:21;;;;;;;0.60;0.50;;;21.50;44.80;;;;;;5067863;28;20024;-59
2021/05/22 04:41:47;;;;;;;0.65;0.40;;;21.50;44.90;;;;;;5066891;28;20199;-54
2021/05/22 04:44:12;;;;;;;0.65;0.50;;;21.50;44.90;;;;;;5066761;28;20427;-58
2021/05/22 04:46:38;;;;;;;0.75;0.50;;;21.50;44.90;;;;;;5068113;28;20134;-60
2021/05/22 04:49:05;;;;;;;0.70;0.50;;;21.50;44.90;;;;;;5066735;28;20031;-61
2021/05/22 04:51:30;;;;;;;0.32;0.32;;;21.50;44.80;;;;;;5067611;28;20035;-58
2021/05/22 04:54:04;;;;;;;0.65;0.57;;;21.50;44.90;;;;;;5066589;28;20036;-55
2021/05/22 04:56:30;;;;;;;0.40;0.40;;;21.50;44.90;;;;;;5059266;28;20094;-58
2021/05/22 04:58:56;;;;;;;0.70;0.50;;;21.40;44.80;;;;;;5064393;28;20394;-58
2021/05/22 05:01:22;;;;;;;1.38;0.57;;;21.40;44.80;;;;;;5054786;28;20044;-60
2021/05/22 05:03:47;;;;;;;0.40;0.40;;;21.40;44.90;;;;;;5063739;28;20036;-59
2021/05/22 05:06:13;;;;;;;0.70;0.40;;;21.40;44.90;;;;;;5066024;28;20025;-59
2021/05/22 05:08:39;;;;;;;0.40;0.40;;;21.40;44.90;;;;;;5064815;28;20029;-59
2021/05/22 05:11:05;;;;;;;0.52;0.45;;;21.40;44.90;;;;;;5058731;28;20032;-58
2021/05/22 05:13:31;;;;;;;0.65;0.50;;;21.40;44.90;;;;;;5059080;28;20032;-60
2021/05/22 05:15:57;;;;;;;0.55;0.40;;;21.50;45.00;;;;;;5063789;28;20029;-59
2021/05/22 05:18:23;;;;;;;0.40;0.40;;;21.40;44.90;;;;;;5065273;28;20561;-57
2021/05/22 05:20:48;;;;;;;0.45;0.45;;;21.40;44.90;;;;;;5053387;28;20337;-58
2021/05/22 05:23:14;;;;;;;0.30;0.30;;;21.40;44.90;;;;;;5044230;28;20422;-58
2021/05/22 05:25:40;;;;;;;0.47;0.47;;;21.40;45.00;;;;;;5048312;28;20374;-56
2021/05/22 05:28:05;;;;;;;0.40;0.30;;;21.40;45.00;;;;;;5059696;28;20051;-55
2021/05/22 05:30:31;;;;;;;0.50;0.32;;;21.40;45.00;;;;;;5063678;28;20119;-57
2021/05/22 05:32:57;;;;;;;0.90;0.50;;;21.40;45.00;;;;;;5064541;28;20104;-60
2021/05/22 05:35:22;;;;;;;0.57;0.40;;;21.40;45.00;;;;;;5063464;28;20044;-59
2021/05/22 05:37:48;;;;;;;0.68;0.32;;;21.40;45.00;;;;;;5065260;28;20394;-59
2021/05/22 05:40:14;;;;;;;0.68;0.50;;;21.40;45.00;;;;;;5053224;28;20482;-59
2021/05/22 05:42:40;;;;;;;0.98;0.50;;;21.40;45.00;;;;;;5064686;28;20021;-59
2021/05/22 05:45:07;;;;;;;1.10;0.68;;;21.40;45.00;;;;;;5044602;28;20325;-59
2021/05/22 05:47:32;;;;;;;0.38;0.38;;;21.40;45.20;;;;;;5057679;28;20506;-60
2021/05/22 05:49:58;;;;;;;0.30;0.30;;;21.40;45.00;;;;;;5063838;28;20055;-60
2021/05/22 05:52:24;;;;;;;0.50;0.50;;;21.30;45.00;;;;;;5060554;28;20039;-57
2021/05/22 05:54:49;;;;;;;0.43;0.43;;;21.40;45.00;;;;;;5060615;28;20029;-61
2021/05/22 05:57:15;;;;;;;0.47;0.47;;;21.40;45.00;;;;;;5063096;28;20073;-61
2021/05/22 05:59:41;;;;;;;0.70;0.50;;;21.30;45.00;;;;;;5063772;28;20411;-61
2021/05/22 06:02:06;;;;;;;0.40;0.40;;;21.30;45.00;;;;;;5061809;28;20744;-60
2021/05/22 06:04:32;;;;;;;0.40;0.40;;;21.30;44.90;;;;;;5063010;28;20046;-59
2021/05/22 06:06:58;;;;;;;0.82;0.50;;;21.30;44.90;;;;;;5065232;28;20044;-61
2021/05/22 06:09:23;;;;;;;0.50;0.40;;;21.30;44.90;;;;;;5064125;28;20024;-59
2021/05/22 06:11:49;;;;;;;0.77;0.40;;;21.30;44.90;;;;;;5063602;28;20024;-60
2021/05/22 06:14:33;;;;;;;1.52;0.40;;;21.30;45.40;;;;;;5060884;28;20475;-62
2021/05/22 06:16:58;;;;;;;0.50;0.40;;;21.30;44.80;;;;;;5082746;28;20454;-61
2021/05/22 06:19:24;;;;;;;1.10;0.47;;;21.30;44.90;;;;;;5071917;28;20052;-60
2021/05/22 06:21:50;;;;;;;0.43;0.32;;;21.30;44.90;;;;;;5061753;28;20025;-59
2021/05/22 06:24:15;;;;;;;0.40;0.40;;;21.30;44.90;;;;;;5061098;28;20046;-61
2021/05/22 06:26:41;;;;;;;0.73;0.73;;;21.30;44.80;;;;;;5056542;28;20032;-61
2021/05/22 06:29:07;;;;;;;0.98;0.40;;;21.30;44.80;;;;;;5051637;28;20112;-62
2021/05/22 06:31:32;;;;;;;0.52;0.40;;;21.30;44.80;;;;;;5062332;28;20746;-61
2021/05/22 06:33:58;;;;;;;0.52;0.30;;;21.30;44.80;;;;;;5066759;28;20028;-59
2021/05/22 06:36:27;;;;;;;0.68;0.50;;;21.30;44.80;;;;;;5067893;28;20107;-59
2021/05/22 06:38:53;;;;;;;0.50;0.40;;;21.30;44.80;;;;;;5067560;28;20797;-59
2021/05/22 06:41:19;;;;;;;0.40;0.40;;;21.30;44.80;;;;;;5068557;28;20514;-61
2021/05/22 06:43:45;;;;;;;0.93;0.50;;;21.30;44.80;;;;;;5067214;28;20324;-61
2021/05/22 06:48:40;;;;;;;0.32;0.30;;;21.30;44.80;;;;;;5065692;28;20711;-61
2021/05/22 06:51:06;;;;;;;1.15;0.60;;;21.30;44.80;;;;;;5064877;28;20098;-60
2021/05/22 06:53:32;;;;;;;0.88;0.43;;;21.30;44.80;;;;;;5063526;28;20033;-59
2021/05/22 06:55:59;;;;;;;0.98;0.47;;;21.30;44.90;;;;;;5067344;28;20056;-61
2021/05/22 06:58:25;;;;;;;0.47;0.47;;;21.30;44.90;;;;;;5065352;28;20219;-61
2021/05/22 07:00:51;;;;;;;0.70;0.50;;;21.30;44.90;;;;;;5064032;28;20171;-60
2021/05/22 07:03:17;;;;;;;0.75;0.43;;;21.20;44.80;;;;;;5064477;28;20490;-60
2021/05/22 07:05:42;;;;;;;0.82;0.50;;;21.20;44.80;;;;;;5064192;28;20037;-59
2021/05/22 07:08:08;;;;;;;0.30;0.30;;;21.20;44.80;;;;;;5066828;28;20467;-58
2021/05/22 07:10:35;;;;;;;0.52;0.43;;;21.20;44.80;;;;;;5063746;28;20024;-55
2021/05/22 07:13:01;;;;;;;0.47;0.47;;;21.20;44.80;;;;;;5063941;28;20520;-58
2021/05/22 07:15:27;;;;;;;0.98;0.50;;;21.20;44.80;;;;;;5066534;28;20029;-56
2021/05/22 07:17:52;;;;;;;0.30;0.30;;;21.20;44.80;;;;;;5066695;28;20335;-58
2021/05/22 07:20:18;;;;;;;0.85;0.50;;;21.20;44.80;;;;;;5065940;28;20029;-56
2021/05/22 07:22:46;;;;;;;1.10;0.43;;;21.30;44.80;;;;;;5066140;28;20056;-62
2021/05/22 07:25:12;;;;;;;0.43;0.43;;;21.20;44.80;;;;;;5065559;28;20035;-59
2021/05/22 07:27:37;;;;;;;0.40;0.40;;;21.30;44.80;;;;;;5065989;28;20024;-59
2021/05/22 07:30:09;;;;;;;0.98;0.43;;;21.30;44.80;;;;;;5065629;28;20031;-54
2021/05/22 07:32:39;;;;;;;1.42;0.50;;;21.20;44.80;;;;;;5065534;28;20043;-58
2021/05/22 07:35:06;;;;;;;1.17;0.50;;;21.30;44.80;;;;;;5063693;28;20021;-59
2021/05/22 07:37:32;;;;;;;0.50;0.40;;;21.30;44.80;;;;;;5067269;28;20088;-61
2021/05/22 07:39:59;;;;;;;1.05;0.52;;;21.30;44.80;;;;;;5066376;28;20040;-57
2021/05/22 07:42:25;;;;;;;0.90;0.40;;;21.30;44.90;;;;;;5066405;28;20467;-56
2021/05/22 07:44:52;;;;;;;1.27;0.57;;;21.30;44.90;;;;;;5064131;28;20371;-59
2021/05/22 07:47:17;;;;;;;1.02;0.50;;;21.30;44.90;;;;;;5065990;28;20066;-60
2021/05/22 07:49:43;;;;;;;1.13;0.50;;;21.30;44.90;;;;;;5063382;28;20032;-56
2021/05/22 07:52:10;;;;;;;0.40;0.40;;;21.30;44.90;;;;;;5066677;28;20012;-59
2021/05/22 07:54:41;;;;;;;1.45;0.50;;;21.30;44.90;;;;;;5065408;28;20048;-59
2021/05/22 07:57:09;;;;;;;1.38;0.60;;;21.30;44.90;;;;;;5064009;28;20506;-53
2021/05/22 07:59:35;;;;;;;0.93;0.40;;;21.30;44.90;;;;;;5061778;28;20037;-60
2021/05/22 08:02:01;;;;;;;0.30;0.30;;;21.30;44.80;;;;;;5063990;28;20036;-58
2021/05/22 08:04:27;;;;;;;0.73;0.50;;;21.30;44.80;;;;;;5060461;28;20028;-59
2021/05/22 08:06:53;;;;;;;1.58;0.63;;;21.30;44.90;;;;;;5066308;28;20039;-59
2021/05/22 08:09:18;;;;;;;1.45;0.50;;;21.30;44.90;;;;;;5063239;28;20029;-56
2021/05/22 08:11:45;;;;;;;1.05;0.50;;;21.30;44.90;;;;;;5065530;28;20032;-56
2021/05/22 08:14:11;;;;;;;0.98;0.50;;;21.30;45.00;;;;;;5062679;28;20028;-57
2021/05/22 08:16:37;;;;;;;0.68;0.50;;;21.30;45.10;;;;;;5066118;28;20818;-59
2021/05/22 08:19:07;;;;;;;1.13;0.60;;;21.30;45.20;;;;;;5062276;28;20043;-56
2021/05/22 08:21:33;;;;;;;;;;;21.30;45.20;;;;;;5063453;28;20059;-61
2021/05/22 08:23:59;;;;;;;1.00;0.50;;;21.30;45.40;;;;;;5062361;28;20059;-58
2021/05/22 08:26:25;;;;;;;1.38;0.60;;;21.30;45.30;;;;;;5067373;28;20027;-58
2021/05/22 08:28:52;;;;;;;0.68;0.40;;;21.30;45.30;;;;;;5063894;28;20080;-59
2021/05/22 08:31:18;;;;;;;1.40;0.50;;;21.30;45.60;;;;;;5064694;28;20039;-60
2021/05/22 08:33:45;;;;;;;1.13;0.50;;;21.30;45.60;;;;;;5062542;28;20041;-60
2021/05/22 08:36:10;;;;;;;0.77;0.40;;;21.30;45.80;;;;;;5065031;28;20044;-60
2021/05/22 08:38:36;;;;;;;0.52;0.43;;;21.30;45.80;;;;;;5061663;28;20371;-57
2021/05/22 08:41:04;;;;;;;0.65;0.50;;;21.30;46.00;;;;;;5064249;28;20041;-58
2021/05/22 08:43:30;;;;;;;1.95;0.50;;;21.30;45.80;;;;;;5065416;28;20056;-59
2021/05/22 08:45:55;;;;;;;2.38;0.50;;;21.30;45.70;;;;;;5065054;28;20028;-57
2021/05/22 08:48:21;;;;;;;0.85;0.50;;;21.30;45.70;;;;;;5062264;28;20036;-59
2021/05/22 08:50:47;;;;;;;1.08;0.40;;;21.30;45.60;;;;;;5056951;28;20060;-57
2021/05/22 08:53:13;;;;;;;1.35;0.60;;;21.30;45.70;;;;;;5063368;28;20029;-58
2021/05/22 08:55:39;;;;;;;0.90;0.50;;;21.30;45.70;;;;;;5065466;28;20025;-56
2021/05/22 08:58:05;;;;;;;3.35;0.93;;;21.30;45.60;;;;;;5063198;28;20254;-58
2021/05/22 09:00:38;;;;;;;1.92;0.60;;;21.30;45.60;;;;;;5052053;28;20206;-56
2021/05/22 09:03:04;;;;;;;1.33;0.60;;;21.30;45.60;;;;;;5052774;28;20028;-56
2021/05/22 09:05:31;;;;;;;1.33;0.40;;;21.30;45.60;;;;;;5062657;28;20045;-57
2021/05/22 09:08:12;;;;;;;2.40;0.55;;;21.30;45.80;;;;;;5065229;28;20032;-59
2021/05/22 09:10:48;;;;;;;1.75;0.60;;;21.30;45.80;;;;;;5052038;28;20439;-59
2021/05/22 09:13:26;;;;;;;2.03;0.60;;;21.30;45.80;;;;;;5043099;28;20030;-57
2021/05/22 09:16:00;;;;;;;1.10;0.47;;;21.30;46.40;;;;;;5045373;28;20452;-60
2021/05/22 09:18:31;;;;;;;1.48;0.50;;;21.30;46.00;;;;;;5055686;28;20020;-57
2021/05/22 09:20:59;;;;;;;1.75;0.40;;;21.30;45.90;;;;;;5050757;28;20038;-62
2021/05/22 09:23:32;;;;;;;0.73;0.50;;;21.30;46.10;;;;;;5063994;28;20040;-60
2021/05/22 09:26:04;;;;;;;2.65;0.60;;;21.30;46.20;;;;;;5049717;28;20534;-61
2021/05/22 09:28:32;;;;;;;1.83;0.70;;;21.30;46.20;;;;;;5061934;28;20218;-59
2021/05/22 09:31:00;;;;;;;2.92;0.80;;;21.30;46.30;;;;;;5064522;28;20383;-60
2021/05/22 09:33:30;;;;;;;1.23;0.50;;;21.30;46.30;;;;;;5063688;28;20494;-60
2021/05/22 09:36:07;;;;;;;2.53;0.68;;;21.30;46.30;;;;;;5064201;28;20121;-57
2021/05/22 09:38:45;;;;;;;1.35;0.52;;;21.30;46.40;;;;;;5062532;28;20029;-60
2021/05/22 09:41:22;;;;;;;1.45;0.68;;;21.30;46.30;;;;;;5055434;28;20021;-59
2021/05/22 09:44:09;;;;;;;3.42;0.50;;;21.30;46.30;;;;;;5063150;28;20031;-58
2021/05/22 09:46:55;;;;;;;2.15;0.65;;;21.30;46.40;;;;;;5065426;28;20028;-56
2021/05/22 09:49:23;;;;;;;1.88;0.70;;;21.30;46.50;;;;;;5048079;28;20567;-61
2021/05/22 09:52:01;;;;;;;2.03;0.50;;;21.30;46.50;;;;;;5057679;28;20032;-56
2021/05/22 09:54:46;;;;;;;1.15;0.50;;;21.30;46.60;;;;;;5051238;28;20111;-60
2021/05/22 09:57:15;;;;;;;2.80;0.63;;;21.30;46.60;;;;;;5050410;28;20708;-57
2021/05/22 09:59:41;;;;;;;2.00;0.70;;;21.30;46.70;;;;;;5061695;28;20036;-60
2021/05/22 10:02:06;;;;;;;1.75;0.68;;;21.30;46.70;;;;;;5059189;28;20036;-60
2021/05/22 10:04:32;;;;;;;3.38;0.60;;;21.30;46.70;;;;;;5062577;28;20045;-60
2021/05/22 10:06:58;;;;;;;2.35;0.60;;;21.30;46.70;;;;;;5065108;28;20037;-61
2021/05/22 10:09:25;;;;;;;2.17;0.63;;;21.30;46.70;;;;;;5060397;28;20032;-60
2021/05/22 10:12:14;;;;;;;4.60;1.08;;;21.30;46.70;;;;;;5065114;28;20036;-59
2021/05/22 10:14:41;;;;;;;;;;;21.30;46.80;;;;;;5062965;28;20119;-61
2021/05/22 10:17:09;;;;;;;3.47;0.60;;;21.30;46.90;;;;;;5062382;28;19919;-63
2021/05/22 10:19:36;;;;;;;3.25;1.15;;;21.40;47.00;;;;;;5058702;28;20074;-62
2021/05/22 10:22:03;;;;;;;4.32;0.60;;;21.30;47.00;;;;;;5065053;28;20040;-58
2021/05/22 10:24:30;;;;;;;2.60;0.80;;;21.40;47.00;;;;;;5054187;28;20099;-60
2021/05/22 10:26:57;;;;;;;2.38;0.70;;;21.40;47.10;;;;;;5060402;28;20108;-62
2021/05/22 10:29:23;;;;;;;4.10;0.80;;;21.40;47.00;;;;;;5064280;28;20070;-63
2021/05/22 10:31:50;;;;;;;1.40;0.70;;;21.40;47.10;;;;;;5060962;28;20052;-63
2021/05/22 10:34:19;;;;;;;1.42;0.60;;;21.40;47.20;;;;;;5063623;28;20088;-59
2021/05/22 10:36:51;;;;;;;4.55;1.15;;;21.40;47.20;;;;;;5055899;28;20052;-60
2021/05/22 10:39:40;;;;;;;2.13;0.63;;;21.40;47.30;;;;;;5063360;28;20103;-61
2021/05/22 10:42:22;;;;;;;2.58;0.60;;;21.40;47.30;;;;;;5061677;28;20080;-62
2021/05/22 10:44:48;;;;;;;2.45;0.77;;;21.40;47.30;;;;;;5065171;28;20387;-62
2021/05/22 10:47:17;;;;;;;4.15;0.82;;;21.40;47.40;;;;;;5061159;28;20029;-61
2021/05/22 10:49:56;;;;;;;3.45;0.80;;;21.40;47.40;;;;;;5062198;28;20105;-58
2021/05/22 10:52:27;;;;;;;2.42;0.85;;;21.40;47.40;;;;;;5056243;28;20119;-61
2021/05/22 10:55:00;;;;;;;3.60;0.60;;;21.40;47.30;;;;;;5065490;28;20068;-60
2021/05/22 10:57:27;;;;;;;1.95;0.70;;;21.40;47.30;;;;;;5065278;28;20757;-57
2021/05/22 11:00:11;;;;;;;3.38;1.30;;;21.40;47.30;;;;;;5065686;28;20041;-60
2021/05/22 11:02:42;;;;;;;2.53;0.80;;;21.40;47.30;;;;;;5058717;28;20090;-68
2021/05/22 11:05:36;;;;;;;3.88;1.00;;;21.50;47.90;;;;;;5061875;28;20066;-62
2021/05/22 11:08:07;;;;;;;4.50;0.73;;;21.50;47.30;;;;;;5060710;28;20459;-60
2021/05/22 11:10:48;;;;;;;1.85;0.90;;;21.50;47.30;;;;;;5062685;28;20040;-61
2021/05/22 11:13:23;;;;;;;1.85;0.70;;;21.50;47.20;;;;;;5064045;28;20024;-58
2021/05/22 11:15:56;;;;;;;2.50;1.00;;;21.50;47.00;;;;;;5065840;28;20044;-60
2021/05/22 11:18:27;;;;;;;4.70;0.80;;;21.50;46.90;;;;;;5063857;28;20065;-60
2021/05/22 11:21:08;;;;;;;2.75;0.70;;;21.50;46.80;;;;;;5066305;28;20115;-58
2021/05/22 11:23:59;;;;;;;2.58;0.80;;;21.50;46.80;;;;;;5066946;28;20141;-61
2021/05/22 11:26:48;;;;;;;2.95;0.90;;;21.50;46.70;;;;;;5066388;28;20096;-60
2021/05/22 11:29:18;;;;;;;2.25;0.80;;;21.50;46.60;;;;;;5060968;28;20050;-58
2021/05/22 11:31:44;;;;;;;2.53;1.20;;;21.50;46.50;;;;;;5066402;28;20044;-59
2021/05/22 11:34:25;;;;;;;3.50;0.75;;;21.50;46.50;;;;;;5067625;28;20024;-56
2021/05/22 11:37:09;;;;;;;2.45;0.82;;;21.50;46.40;;;;;;5067376;28;20036;-59
2021/05/22 11:39:38;;;;;;;3.20;0.80;;;21.50;46.40;;;;;;5063050;28;20032;-58
2021/05/22 11:42:28;;;;;;;2.92;0.65;;;21.50;46.30;;;;;;5065683;28;20032;-58
2021/05/22 11:44:55;;;;;;;2.85;0.80;;;21.60;46.30;;;;;;5064456;28;20048;-59
2021/05/22 11:47:21;;;;;;;3.58;0.98;;;21.60;46.20;;;;;;5065555;28;20032;-57
2021/05/22 11:49:47;;;;;;;2.40;0.70;;;21.50;46.10;;;;;;5065443;28;20052;-59
2021/05/22 11:52:30;;;;;;;4.20;0.77;;;21.60;46.10;;;;;;5064581;28;20066;-58
2021/05/22 11:54:56;;;;;;;3.17;0.80;;;21.60;46.00;;;;;;5065862;28;20037;-59
2021/05/22 11:57:22;;;;;;;2.25;0.60;;;21.60;46.00;;;;;;5062588;28;20094;-59
2021/05/22 11:59:48;;;;;;;2.67;0.70;;;21.60;45.90;;;;;;5067368;28;20532;-57
2021/05/22 12:02:33;;;;;;;1.77;0.60;;;21.60;45.90;;;;;;5063886;28;20150;-59
2021/05/22 12:04:59;;;;;;;3.67;0.95;;;21.60;45.90;;;;;;5065274;28;20116;-60
2021/05/22 12:07:24;;;;;;;1.45;0.70;;;21.60;45.80;;;;;;5064482;28;20182;-56
2021/05/22 12:09:50;;;;;;;3.03;0.80;;;21.60;45.80;;;;;;5062819;28;20036;-60
2021/05/22 12:12:15;;;;;;;2.15;0.80;;;21.60;45.80;;;;;;5063355;28;20032;-59
2021/05/22 12:14:46;;;;;;;1.58;0.80;;;21.60;45.90;;;;;;5064188;28;20125;-57
2021/05/22 12:17:17;;;;;;;3.08;0.68;;;21.60;45.80;;;;;;5064196;28;20028;-59
2021/05/22 12:19:45;;;;;;;2.03;0.70;;;21.60;45.80;;;;;;5064246;28;20028;-61
2021/05/22 12:22:13;;;;;;;2.83;1.10;;;21.60;45.80;;;;;;5050612;28;20082;-57
2021/05/22 12:24:39;;;;;;;1.88;0.80;;;21.60;45.80;;;;;;5060369;28;20332;-56
2021/05/22 12:27:05;;;;;;;3.95;1.23;;;21.60;45.70;;;;;;5064590;28;20021;-61
2021/05/22 12:29:31;;;;;;;2.45;0.60;;;21.60;45.80;;;;;;5062516;28;20033;-59
2021/05/22 12:32:04;;;;;;;1.77;0.70;;;21.60;45.60;;;;;;5065149;28;20064;-59
2021/05/22 12:34:33;;;;;;;4.50;0.70;;;21.60;45.60;;;;;;5065941;28;20029;-56
2021/05/22 12:37:05;;;;;;;1.95;0.68;;;21.60;45.60;;;;;;5065923;28;20039;-59
2021/05/22 12:39:35;;;;;;;1.95;0.68;;;21.60;45.60;;;;;;5064528;28;20108;-56
2021/05/22 12:42:19;;;;;;;2.65;0.68;;;21.60;45.60;;;;;;5065981;28;20067;-54
2021/05/22 12:44:47;;;;;;;2.03;0.60;;;21.60;45.60;;;;;;5066491;28;20422;-60
2021/05/22 12:47:13;;;;;;;1.00;0.50;;;21.70;45.50;;;;;;5064409;28;20360;-57
2021/05/22 12:49:53;;;;;;;1.38;0.68;;;21.70;45.50;;;;;;5055267;28;20017;-61
2021/05/22 12:52:19;;;;;;;2.15;0.70;;;21.70;45.50;;;;;;5064675;28;20375;-56
2021/05/22 12:54:45;;;;;;;1.77;0.60;;;21.70;45.40;;;;;;5064535;28;20036;-58
2021/05/22 12:57:19;;;;;;;3.45;0.70;;;21.70;45.40;;;;;;5065311;28;20063;-57